Plainwell, Michigan
Current Conditions -  °F | °C
As of 3:53 AM on Sunday 21 Dec 2014 (Local Time) from KAZO Reporting Station
Haze Haze  
Wind Chill: 25°   Ceiling: 6000
Heat Index: 30°   Visibility: 3mi
Dew Point: 27°   Wind: 5mph
Humidity: 88%   Direction: 170°S
Pressure: 30.27"   Gusts: NA
Location:  42.44°N, 85.65°W
Report Text: KAZO 210853Z AUTO 17004KT 3SM BR FEW026 OVC060 M01/M03 A3027 RMK AO2 SLP261 T10111028 53004
Loading
Personal Weather Stations






























Interactive Weather Map New forecast layout! Learn more

10-Day Weather Forecast

Advertisements
Track Severe Weather on mobile